Time;durP1;ratioP1;P1;durP2;ratioP2;P2;SDS_P1;SDS_P2;PMS_P1;PMS_P2;Temp;Humidity;BMP_temperature;BMP_pressure;BME280_temperature;BME280_humidity;BME280_pressure;Samples;Min_cycle;Max_cycle;Signal;HPM_P1;HPM_P2
2021/10/02 00:31:24;;;;;;;;;;;21.80;58.20;;;;;;458356;260;2131;-46
2021/10/02 00:33:36;;;;;;;;;;;21.80;58.20;;;;;;459246;254;1336;-46
2021/10/02 00:35:37;;;;;;;;;;;21.80;58.10;;;;;;458797;254;2227;-46
2021/10/02 00:37:51;;;;;;;;;;;21.80;58.00;;;;;;458406;254;2328;-46
2021/10/02 00:44:40;;;;;;;;;;;21.80;58.10;;;;;;458578;260;1127;-46
2021/10/02 00:46:41;;;;;;;;;;;21.80;58.10;;;;;;458373;259;1549;-46
2021/10/02 00:48:42;;;;;;;;;;;21.80;58.10;;;;;;458399;259;1372;-45
2021/10/02 00:50:43;;;;;;;;;;;21.80;58.10;;;;;;458634;258;2202;-45
2021/10/02 00:52:45;;;;;;;;;;;21.70;58.20;;;;;;458390;259;1347;-46
2021/10/02 00:54:46;;;;;;;;;;;21.80;58.30;;;;;;458442;259;1072;-45
2021/10/02 00:56:47;;;;;;;;;;;21.80;58.30;;;;;;458388;258;1243;-46
2021/10/02 00:58:50;;;;;;;;;;;21.80;58.20;;;;;;458846;258;1099;-46
2021/10/02 01:00:51;;;;;;;;;;;21.80;58.10;;;;;;458798;254;1831;-46
2021/10/02 01:02:51;;;;;;;;;;;21.80;58.10;;;;;;458622;258;1247;-46
2021/10/02 01:04:53;;;;;;;;;;;21.80;58.20;;;;;;458458;259;1083;-45
2021/10/02 01:06:54;;;;;;;;;;;21.80;58.10;;;;;;458485;258;1372;-46
2021/10/02 01:08:56;;;;;;;;;;;21.80;58.10;;;;;;458878;258;1236;-46
2021/10/02 01:10:57;;;;;;;;;;;21.80;57.90;;;;;;458626;258;2190;-46
2021/10/02 01:13:00;;;;;;;;;;;21.80;58.00;;;;;;458634;258;1218;-46
2021/10/02 01:15:01;;;;;;;;;;;21.80;58.10;;;;;;458426;259;1078;-46
2021/10/02 01:17:02;;;;;;;;;;;21.80;58.00;;;;;;458585;258;1317;-46
2021/10/02 01:19:04;;;;;;;;;;;21.80;58.00;;;;;;458544;258;1176;-45
2021/10/02 01:21:05;;;;;;;;;;;21.80;58.00;;;;;;458362;259;1247;-46
2021/10/02 01:23:06;;;;;;;;;;;21.80;58.00;;;;;;458606;258;1068;-46
2021/10/02 01:25:08;;;;;;;;;;;21.80;58.00;;;;;;458423;258;1181;-46
2021/10/02 01:27:11;;;;;;;;;;;21.80;58.10;;;;;;458475;258;1249;-46
2021/10/02 01:29:10;;;;;;;;;;;21.80;58.10;;;;;;458523;254;2326;-46
2021/10/02 01:31:19;;;;;;;;;;;21.80;57.90;;;;;;458608;255;2194;-46
2021/10/02 01:33:21;;;;;;;;;;;21.80;58.00;;;;;;458637;254;2255;-46
2021/10/02 01:35:25;;;;;;;;;;;21.80;57.90;;;;;;458967;254;2054;-46
2021/10/02 01:37:26;;;;;;;;;;;21.80;58.00;;;;;;458740;254;2132;-46
2021/10/02 01:48:40;;;;;;;;;;;21.80;58.00;;;;;;458593;260;1181;-46
2021/10/02 01:50:41;;;;;;;;;;;21.80;57.90;;;;;;458480;254;2334;-46
2021/10/02 01:52:42;;;;;;;;;;;21.80;57.90;;;;;;458461;258;1225;-46
2021/10/02 01:54:43;;;;;;;;;;;21.90;57.90;;;;;;458632;258;1047;-46
2021/10/02 01:56:44;;;;;;;;;;;21.90;57.90;;;;;;458576;256;1362;-47
2021/10/02 01:58:46;;;;;;;;;;;21.90;57.90;;;;;;458483;258;1105;-46
2021/10/02 02:00:47;;;;;;;;;;;21.80;57.90;;;;;;458756;258;1325;-46
2021/10/02 02:02:48;;;;;;;;;;;21.80;58.00;;;;;;458435;258;1313;-46
2021/10/02 02:04:50;;;;;;;;;;;21.80;58.00;;;;;;458472;259;1318;-46
2021/10/02 02:06:52;;;;;;;;;;;21.80;58.00;;;;;;458648;258;1237;-46
2021/10/02 02:08:52;;;;;;;;;;;21.80;58.10;;;;;;458716;254;2575;-45
2021/10/02 02:10:54;;;;;;;;;;;21.80;58.00;;;;;;458692;258;2135;-46
2021/10/02 02:12:55;;;;;;;;;;;21.80;58.10;;;;;;458593;258;1291;-46
2021/10/02 02:14:56;;;;;;;;;;;21.80;58.10;;;;;;458688;258;1213;-46
2021/10/02 02:16:58;;;;;;;;;;;21.80;58.10;;;;;;458469;258;1406;-46
2021/10/02 02:18:59;;;;;;;;;;;21.80;58.10;;;;;;458485;259;1094;-46
2021/10/02 02:21:00;;;;;;;;;;;21.80;58.00;;;;;;458349;258;1146;-46
2021/10/02 02:23:02;;;;;;;;;;;21.80;58.00;;;;;;458472;258;1379;-46
2021/10/02 02:25:03;;;;;;;;;;;21.80;58.10;;;;;;458538;258;1075;-46
2021/10/02 02:27:04;;;;;;;;;;;21.80;58.00;;;;;;458395;259;1329;-46
2021/10/02 02:29:06;;;;;;;;;;;21.80;58.00;;;;;;458506;258;1240;-46
2021/10/02 02:31:07;;;;;;;;;;;21.80;58.10;;;;;;458382;259;2142;-45
2021/10/02 02:33:08;;;;;;;;;;;21.80;58.10;;;;;;458591;258;1295;-46
2021/10/02 02:35:10;;;;;;;;;;;21.80;58.10;;;;;;458458;259;1069;-46
2021/10/02 02:37:11;;;;;;;;;;;21.80;58.10;;;;;;458371;259;1529;-47
2021/10/02 02:39:12;;;;;;;;;;;21.80;58.00;;;;;;458871;258;1030;-47
2021/10/02 02:41:13;;;;;;;;;;;21.80;58.00;;;;;;458721;258;1335;-46
2021/10/02 02:43:15;;;;;;;;;;;21.80;58.00;;;;;;458455;258;1560;-46
2021/10/02 02:45:16;;;;;;;;;;;21.80;57.90;;;;;;458504;258;1097;-47
2021/10/02 02:47:17;;;;;;;;;;;21.80;58.10;;;;;;458402;256;1412;-47
2021/10/02 02:49:19;;;;;;;;;;;21.80;58.10;;;;;;458783;258;1085;-47
2021/10/02 02:51:20;;;;;;;;;;;21.80;58.00;;;;;;458485;258;2205;-47
2021/10/02 02:53:22;;;;;;;;;;;21.80;57.90;;;;;;458493;258;1306;-47
2021/10/02 02:55:23;;;;;;;;;;;21.80;57.90;;;;;;458471;254;2007;-47
2021/10/02 02:57:24;;;;;;;;;;;21.80;58.00;;;;;;458375;259;1219;-47
2021/10/02 02:59:25;;;;;;;;;;;21.80;58.00;;;;;;458450;259;1125;-46
2021/10/02 03:01:27;;;;;;;;;;;21.80;57.90;;;;;;458350;255;1334;-47
2021/10/02 03:03:28;;;;;;;;;;;21.80;57.90;;;;;;458759;258;1106;-47
2021/10/02 03:05:29;;;;;;;;;;;21.80;58.00;;;;;;458397;259;1113;-46
2021/10/02 03:07:30;;;;;;;;;;;21.80;57.90;;;;;;458426;259;1313;-47
2021/10/02 03:09:32;;;;;;;;;;;21.80;57.90;;;;;;458903;258;1094;-47
2021/10/02 03:11:33;;;;;;;;;;;21.80;57.90;;;;;;458508;258;2209;-47
2021/10/02 03:13:35;;;;;;;;;;;21.80;57.90;;;;;;458481;259;1437;-47
2021/10/02 03:15:36;;;;;;;;;;;21.80;58.00;;;;;;458544;258;1369;-46
2021/10/02 03:17:37;;;;;;;;;;;21.80;58.00;;;;;;458577;258;1216;-46
2021/10/02 03:19:38;;;;;;;;;;;21.80;58.00;;;;;;458524;258;1109;-47
2021/10/02 03:21:40;;;;;;;;;;;21.80;58.00;;;;;;458507;258;1367;-47
2021/10/02 03:23:41;;;;;;;;;;;21.80;58.10;;;;;;458408;259;1186;-46
2021/10/02 03:25:42;;;;;;;;;;;21.80;58.00;;;;;;458849;256;1194;-46
2021/10/02 03:27:44;;;;;;;;;;;21.80;57.90;;;;;;458493;258;1313;-46
2021/10/02 03:29:45;;;;;;;;;;;21.80;57.90;;;;;;458485;259;1081;-46
2021/10/02 03:31:46;;;;;;;;;;;21.80;57.90;;;;;;458649;258;2158;-46
2021/10/02 03:33:48;;;;;;;;;;;21.80;57.80;;;;;;458726;258;1078;-46
2021/10/02 03:35:49;;;;;;;;;;;21.80;57.90;;;;;;458759;258;1202;-46
2021/10/02 03:37:50;;;;;;;;;;;21.80;57.80;;;;;;458306;259;1261;-46
2021/10/02 03:39:52;;;;;;;;;;;21.80;57.80;;;;;;458448;259;1071;-46
2021/10/02 03:41:53;;;;;;;;;;;21.80;58.00;;;;;;458631;258;1176;-46
2021/10/02 03:43:54;;;;;;;;;;;21.80;57.90;;;;;;458586;258;1189;-46
2021/10/02 03:45:56;;;;;;;;;;;21.80;57.80;;;;;;458451;259;1279;-46
2021/10/02 03:47:57;;;;;;;;;;;21.80;57.80;;;;;;458585;258;1288;-46
2021/10/02 03:49:58;;;;;;;;;;;21.80;57.80;;;;;;458506;259;1103;-46
2021/10/02 03:52:00;;;;;;;;;;;21.90;57.80;;;;;;458364;258;2158;-46
2021/10/02 03:54:01;;;;;;;;;;;21.80;57.80;;;;;;458576;258;1222;-46
2021/10/02 03:56:04;;;;;;;;;;;21.80;57.80;;;;;;458859;258;1454;-46
2021/10/02 03:58:03;;;;;;;;;;;21.80;57.80;;;;;;458770;254;2278;-46
2021/10/02 04:00:05;;;;;;;;;;;21.80;57.80;;;;;;458883;258;1086;-46
2021/10/02 04:02:06;;;;;;;;;;;21.80;57.80;;;;;;458411;259;1095;-46
2021/10/02 04:04:07;;;;;;;;;;;21.80;57.90;;;;;;458570;258;1007;-46
2021/10/02 04:06:09;;;;;;;;;;;21.80;57.90;;;;;;458402;255;1516;-46
2021/10/02 04:08:10;;;;;;;;;;;21.80;57.90;;;;;;458788;258;1279;-46
2021/10/02 04:10:11;;;;;;;;;;;21.80;57.80;;;;;;458882;258;1064;-46
2021/10/02 04:12:13;;;;;;;;;;;21.80;57.90;;;;;;458446;258;2213;-46
2021/10/02 04:14:14;;;;;;;;;;;21.80;57.90;;;;;;458807;258;1101;-46
2021/10/02 04:16:15;;;;;;;;;;;21.80;57.80;;;;;;458646;258;1212;-46
2021/10/02 04:18:17;;;;;;;;;;;21.80;57.80;;;;;;458432;258;1187;-46
2021/10/02 04:20:18;;;;;;;;;;;21.80;57.90;;;;;;458760;258;1407;-46
2021/10/02 04:22:20;;;;;;;;;;;21.80;57.90;;;;;;458430;258;1266;-46
2021/10/02 04:24:22;;;;;;;;;;;21.80;57.90;;;;;;458618;258;1223;-46
2021/10/02 04:26:22;;;;;;;;;;;21.80;57.80;;;;;;458404;254;1837;-46
2021/10/02 04:28:24;;;;;;;;;;;21.80;57.80;;;;;;458755;258;1065;-46
2021/10/02 04:30:25;;;;;;;;;;;21.80;57.80;;;;;;458695;258;1137;-46
2021/10/02 04:32:26;;;;;;;;;;;21.80;57.80;;;;;;458364;259;2206;-46
2021/10/02 04:34:28;;;;;;;;;;;21.80;57.80;;;;;;458773;258;1166;-46
2021/10/02 04:36:29;;;;;;;;;;;21.80;57.90;;;;;;458513;258;1384;-46
2021/10/02 04:38:30;;;;;;;;;;;21.80;57.80;;;;;;458624;258;1352;-46
2021/10/02 04:40:31;;;;;;;;;;;21.80;57.80;;;;;;458661;258;1281;-46
2021/10/02 04:42:33;;;;;;;;;;;21.80;57.80;;;;;;458722;258;1117;-46
2021/10/02 04:44:34;;;;;;;;;;;21.80;57.80;;;;;;458483;259;1077;-46
2021/10/02 04:46:35;;;;;;;;;;;21.80;57.80;;;;;;458727;258;1261;-46
2021/10/02 04:48:37;;;;;;;;;;;21.80;57.90;;;;;;458870;258;1072;-46
2021/10/02 04:50:39;;;;;;;;;;;21.80;57.90;;;;;;458452;258;1400;-46
2021/10/02 04:52:40;;;;;;;;;;;21.80;57.80;;;;;;458325;259;2139;-46
2021/10/02 04:54:41;;;;;;;;;;;21.80;57.90;;;;;;458476;258;1251;-46
2021/10/02 04:56:43;;;;;;;;;;;21.80;57.90;;;;;;458648;258;1312;-46
2021/10/02 04:58:44;;;;;;;;;;;21.80;57.80;;;;;;458488;259;1093;-46
2021/10/02 05:00:45;;;;;;;;;;;21.80;57.90;;;;;;458813;258;1634;-45
2021/10/02 05:02:47;;;;;;;;;;;21.80;57.80;;;;;;458488;258;1228;-46
2021/10/02 05:04:48;;;;;;;;;;;21.80;57.80;;;;;;458415;259;1079;-46
2021/10/02 05:06:49;;;;;;;;;;;21.80;57.80;;;;;;458670;255;1284;-46
2021/10/02 05:08:50;;;;;;;;;;;21.80;57.80;;;;;;458415;259;1196;-46
2021/10/02 05:10:52;;;;;;;;;;;21.80;57.80;;;;;;458673;258;1556;-46
2021/10/02 05:12:53;;;;;;;;;;;21.80;57.90;;;;;;458472;259;2150;-46
2021/10/02 05:14:54;;;;;;;;;;;21.80;57.80;;;;;;458728;258;1036;-46
2021/10/02 05:16:56;;;;;;;;;;;21.80;57.80;;;;;;458702;258;1378;-46
2021/10/02 05:18:57;;;;;;;;;;;21.80;57.90;;;;;;458820;258;1076;-46
2021/10/02 05:20:58;;;;;;;;;;;21.80;57.90;;;;;;458763;258;1172;-46
2021/10/02 05:23:00;;;;;;;;;;;21.80;57.90;;;;;;458768;258;1215;-46
2021/10/02 05:25:01;;;;;;;;;;;21.80;57.80;;;;;;458654;258;1225;-46
2021/10/02 05:27:03;;;;;;;;;;;21.80;57.80;;;;;;458479;258;1243;-46
2021/10/02 05:29:04;;;;;;;;;;;21.80;57.80;;;;;;458638;254;2388;-46
2021/10/02 05:31:05;;;;;;;;;;;21.80;57.90;;;;;;458571;256;1154;-46
2021/10/02 05:33:06;;;;;;;;;;;21.80;57.90;;;;;;458645;258;2134;-47
2021/10/02 05:35:08;;;;;;;;;;;21.80;57.90;;;;;;458536;258;1086;-46
2021/10/02 05:37:09;;;;;;;;;;;21.80;57.90;;;;;;458371;258;1322;-46
2021/10/02 05:39:10;;;;;;;;;;;21.80;57.90;;;;;;458446;259;1061;-46
2021/10/02 05:41:12;;;;;;;;;;;21.80;57.90;;;;;;458321;258;1355;-46
2021/10/02 05:43:13;;;;;;;;;;;21.80;57.90;;;;;;458428;258;1255;-46
2021/10/02 05:45:14;;;;;;;;;;;21.80;57.90;;;;;;458397;259;1226;-46
2021/10/02 05:47:16;;;;;;;;;;;21.80;57.90;;;;;;458337;259;1324;-46
2021/10/02 05:49:17;;;;;;;;;;;21.80;57.80;;;;;;458356;259;1192;-46
2021/10/02 05:51:18;;;;;;;;;;;21.80;57.80;;;;;;458627;258;1294;-46
2021/10/02 05:53:20;;;;;;;;;;;21.80;57.80;;;;;;458458;258;2135;-45
2021/10/02 05:55:21;;;;;;;;;;;21.80;57.70;;;;;;458415;259;1346;-46
2021/10/02 05:57:22;;;;;;;;;;;21.80;57.80;;;;;;458393;259;1360;-45
2021/10/02 05:59:23;;;;;;;;;;;21.80;57.80;;;;;;458740;258;1143;-46
2021/10/02 06:01:25;;;;;;;;;;;21.80;57.80;;;;;;458409;258;1346;-46
2021/10/02 06:03:26;;;;;;;;;;;21.80;57.70;;;;;;458412;259;1379;-46
2021/10/02 06:05:27;;;;;;;;;;;21.90;57.70;;;;;;458406;258;1146;-46
2021/10/02 06:07:29;;;;;;;;;;;21.80;57.70;;;;;;458520;258;1188;-46
2021/10/02 06:09:30;;;;;;;;;;;21.90;57.70;;;;;;458779;258;1091;-46
2021/10/02 06:11:31;;;;;;;;;;;21.80;57.70;;;;;;458452;256;1296;-47
2021/10/02 06:13:33;;;;;;;;;;;21.80;57.70;;;;;;458784;258;2198;-45
2021/10/02 06:15:34;;;;;;;;;;;21.80;57.70;;;;;;458843;258;1054;-46
2021/10/02 06:17:36;;;;;;;;;;;21.90;57.70;;;;;;458354;259;1179;-46
2021/10/02 06:19:37;;;;;;;;;;;21.80;57.70;;;;;;458818;258;1107;-45
2021/10/02 06:21:38;;;;;;;;;;;21.80;57.70;;;;;;458566;258;1248;-46
2021/10/02 06:23:40;;;;;;;;;;;21.80;57.80;;;;;;458426;259;1288;-46
2021/10/02 06:25:41;;;;;;;;;;;21.80;57.80;;;;;;458462;258;1276;-46
2021/10/02 06:27:42;;;;;;;;;;;21.80;57.70;;;;;;458618;258;1180;-46
2021/10/02 06:29:44;;;;;;;;;;;21.80;57.80;;;;;;458704;258;1072;-46
2021/10/02 06:31:45;;;;;;;;;;;21.80;57.80;;;;;;458473;258;1346;-45
2021/10/02 06:33:46;;;;;;;;;;;21.80;57.80;;;;;;458447;259;2205;-46
2021/10/02 06:35:48;;;;;;;;;;;21.80;57.80;;;;;;458179;260;1326;-46
2021/10/02 06:37:49;;;;;;;;;;;21.80;57.80;;;;;;458415;259;1230;-46
2021/10/02 06:39:50;;;;;;;;;;;21.80;57.90;;;;;;458474;258;1086;-46
2021/10/02 06:41:51;;;;;;;;;;;21.80;57.90;;;;;;458407;258;1482;-46
2021/10/02 06:43:53;;;;;;;;;;;21.80;57.90;;;;;;458859;258;1080;-45
2021/10/02 06:45:54;;;;;;;;;;;21.80;57.90;;;;;;458694;258;1448;-46
2021/10/02 06:47:55;;;;;;;;;;;21.80;57.90;;;;;;458454;259;1187;-46
2021/10/02 06:49:57;;;;;;;;;;;21.80;57.90;;;;;;458886;258;1060;-45
2021/10/02 06:51:59;;;;;;;;;;;21.80;57.80;;;;;;458855;258;1221;-46
2021/10/02 06:54:00;;;;;;;;;;;21.80;57.90;;;;;;458661;258;2138;-46
2021/10/02 06:56:01;;;;;;;;;;;21.80;57.80;;;;;;458481;258;1296;-46
2021/10/02 06:58:02;;;;;;;;;;;21.80;57.80;;;;;;458476;258;1277;-46
2021/10/02 07:00:04;;;;;;;;;;;21.80;57.80;;;;;;458408;259;1117;-46
2021/10/02 07:02:05;;;;;;;;;;;21.80;57.80;;;;;;458413;258;1324;-46
2021/10/02 07:04:06;;;;;;;;;;;21.80;57.80;;;;;;458420;259;1075;-46
2021/10/02 07:06:08;;;;;;;;;;;21.80;57.70;;;;;;458686;255;1234;-46
2021/10/02 07:08:09;;;;;;;;;;;21.90;57.80;;;;;;458468;259;1204;-46
2021/10/02 07:10:10;;;;;;;;;;;21.80;57.80;;;;;;458840;258;1100;-45
2021/10/02 07:12:12;;;;;;;;;;;21.80;57.70;;;;;;458329;259;1347;-46
2021/10/02 07:14:13;;;;;;;;;;;21.80;57.80;;;;;;458566;258;2209;-46
2021/10/02 07:16:14;;;;;;;;;;;21.80;57.80;;;;;;458409;258;1301;-46
2021/10/02 07:18:17;;;;;;;;;;;21.80;57.80;;;;;;458473;259;1188;-46
2021/10/02 07:20:18;;;;;;;;;;;21.80;57.80;;;;;;458889;258;1069;-46
2021/10/02 07:22:19;;;;;;;;;;;21.80;57.80;;;;;;458371;259;1265;-46
2021/10/02 07:24:20;;;;;;;;;;;21.80;57.80;;;;;;458512;259;1079;-46
2021/10/02 07:26:21;;;;;;;;;;;21.80;57.90;;;;;;458658;258;1316;-46
2021/10/02 07:28:23;;;;;;;;;;;21.80;57.90;;;;;;458593;258;1197;-46
2021/10/02 07:30:24;;;;;;;;;;;21.80;57.80;;;;;;458780;258;1136;-46
2021/10/02 07:32:25;;;;;;;;;;;21.80;57.80;;;;;;458836;258;1189;-46
2021/10/02 07:34:27;;;;;;;;;;;21.80;57.80;;;;;;458865;258;2142;-46
2021/10/02 07:36:28;;;;;;;;;;;21.80;57.80;;;;;;458577;258;1442;-46
2021/10/02 07:38:30;;;;;;;;;;;21.80;57.80;;;;;;458483;259;1395;-46
2021/10/02 07:40:31;;;;;;;;;;;21.80;57.80;;;;;;458820;258;1161;-46
2021/10/02 07:42:32;;;;;;;;;;;21.80;57.70;;;;;;458392;259;1209;-46
2021/10/02 07:44:34;;;;;;;;;;;21.80;57.70;;;;;;458906;258;1063;-46
2021/10/02 07:46:35;;;;;;;;;;;21.80;57.80;;;;;;458387;256;1216;-46
2021/10/02 07:48:36;;;;;;;;;;;21.80;57.80;;;;;;458500;259;1069;-46
2021/10/02 07:50:38;;;;;;;;;;;21.80;57.90;;;;;;458482;259;1058;-46
2021/10/02 07:52:39;;;;;;;;;;;21.80;57.70;;;;;;458475;258;2209;-46
2021/10/02 07:54:41;;;;;;;;;;;21.80;57.70;;;;;;458489;259;1063;-45
2021/10/02 07:56:43;;;;;;;;;;;21.80;57.70;;;;;;458577;258;1748;-46
2021/10/02 07:58:44;;;;;;;;;;;21.80;57.70;;;;;;458748;258;1087;-47
2021/10/02 08:00:45;;;;;;;;;;;21.80;57.70;;;;;;458596;258;1358;-46
2021/10/02 08:02:47;;;;;;;;;;;21.80;57.80;;;;;;458654;258;1344;-46
2021/10/02 08:04:48;;;;;;;;;;;21.80;57.70;;;;;;458789;258;1053;-46
2021/10/02 08:06:49;;;;;;;;;;;21.80;57.80;;;;;;458496;258;1549;-46
2021/10/02 08:08:50;;;;;;;;;;;21.80;57.80;;;;;;458550;258;1131;-46
2021/10/02 08:10:52;;;;;;;;;;;21.80;57.80;;;;;;458504;258;1497;-46
2021/10/02 08:12:53;;;;;;;;;;;21.80;57.80;;;;;;458428;259;2177;-45
2021/10/02 08:14:54;;;;;;;;;;;21.80;57.80;;;;;;458539;258;1059;-46
2021/10/02 08:16:57;;;;;;;;;;;21.80;57.80;;;;;;458741;258;1501;-46
2021/10/02 08:18:58;;;;;;;;;;;21.80;57.70;;;;;;458609;254;2373;-46
2021/10/02 08:20:59;;;;;;;;;;;21.80;57.80;;;;;;458425;255;1202;-46
2021/10/02 08:23:00;;;;;;;;;;;21.80;57.80;;;;;;458851;258;1362;-46
2021/10/02 08:25:01;;;;;;;;;;;21.80;57.70;;;;;;458872;258;1089;-46
2021/10/02 08:27:03;;;;;;;;;;;21.80;57.80;;;;;;458570;258;1318;-46
2021/10/02 08:29:04;;;;;;;;;;;21.80;57.70;;;;;;458663;258;1085;-46
2021/10/02 08:31:05;;;;;;;;;;;21.80;57.80;;;;;;458565;258;1473;-46
2021/10/02 08:33:07;;;;;;;;;;;21.80;57.70;;;;;;458583;258;2221;-46
2021/10/02 08:35:08;;;;;;;;;;;21.80;57.70;;;;;;458490;258;1110;-46
2021/10/02 08:37:09;;;;;;;;;;;21.80;57.80;;;;;;458370;259;1199;-46
2021/10/02 08:39:11;;;;;;;;;;;21.80;57.90;;;;;;458709;258;1059;-46
2021/10/02 08:41:12;;;;;;;;;;;21.80;57.80;;;;;;458463;259;1379;-46
2021/10/02 08:43:13;;;;;;;;;;;21.80;57.80;;;;;;458458;259;1479;-45
2021/10/02 08:45:15;;;;;;;;;;;21.80;57.80;;;;;;458851;258;1075;-46
2021/10/02 08:47:16;;;;;;;;;;;21.80;57.80;;;;;;458831;258;1197;-46
2021/10/02 08:49:17;;;;;;;;;;;21.80;57.80;;;;;;458496;259;1578;-46
2021/10/02 08:51:19;;;;;;;;;;;21.80;57.70;;;;;;458749;258;1298;-46
2021/10/02 08:53:20;;;;;;;;;;;21.80;57.70;;;;;;458762;258;2217;-46
2021/10/02 08:55:21;;;;;;;;;;;21.80;57.70;;;;;;458522;258;1064;-46
2021/10/02 08:57:23;;;;;;;;;;;21.80;57.60;;;;;;458453;258;1302;-46
2021/10/02 08:59:24;;;;;;;;;;;21.90;57.70;;;;;;458690;258;1086;-45
2021/10/02 09:01:25;;;;;;;;;;;21.80;57.70;;;;;;458412;259;1437;-46
2021/10/02 09:03:26;;;;;;;;;;;21.80;57.60;;;;;;458583;258;1055;-46
2021/10/02 09:05:28;;;;;;;;;;;21.80;57.80;;;;;;458710;258;1175;-47
2021/10/02 09:07:29;;;;;;;;;;;21.80;57.60;;;;;;458502;258;1295;-46
2021/10/02 09:09:30;;;;;;;;;;;21.80;57.70;;;;;;458495;258;1054;-46
2021/10/02 09:11:32;;;;;;;;;;;21.80;57.80;;;;;;458467;258;1329;-46
2021/10/02 09:13:33;;;;;;;;;;;21.80;57.80;;;;;;458425;259;2162;-46
2021/10/02 09:15:35;;;;;;;;;;;21.80;57.70;;;;;;458885;258;1273;-45
2021/10/02 09:17:36;;;;;;;;;;;21.80;57.80;;;;;;458355;259;1240;-46
2021/10/02 09:19:37;;;;;;;;;;;21.80;57.70;;;;;;458771;258;1048;-46
2021/10/02 09:21:39;;;;;;;;;;;21.80;57.70;;;;;;458430;258;1550;-46
2021/10/02 09:23:40;;;;;;;;;;;21.80;57.70;;;;;;458522;258;1207;-46
2021/10/02 09:25:41;;;;;;;;;;;21.80;57.80;;;;;;458438;259;1303;-46
2021/10/02 09:27:43;;;;;;;;;;;21.80;57.80;;;;;;458439;258;1546;-46
2021/10/02 09:29:44;;;;;;;;;;;21.80;57.80;;;;;;458716;258;1150;-45
2021/10/02 09:31:45;;;;;;;;;;;21.80;57.90;;;;;;458411;259;1177;-46
2021/10/02 09:33:47;;;;;;;;;;;21.70;57.90;;;;;;458764;258;2126;-46
2021/10/02 09:35:48;;;;;;;;;;;21.80;57.90;;;;;;458440;259;1489;-46
2021/10/02 09:37:49;;;;;;;;;;;21.80;57.80;;;;;;458343;260;1567;-46
2021/10/02 09:39:51;;;;;;;;;;;21.80;57.80;;;;;;458367;259;1187;-46
2021/10/02 09:41:52;;;;;;;;;;;21.80;57.80;;;;;;458727;258;1497;-46
2021/10/02 09:43:53;;;;;;;;;;;21.80;57.90;;;;;;458391;259;1172;-46
2021/10/02 09:45:55;;;;;;;;;;;21.80;57.80;;;;;;458598;258;1288;-46
2021/10/02 09:47:56;;;;;;;;;;;21.80;57.80;;;;;;458717;258;1086;-46
2021/10/02 09:49:57;;;;;;;;;;;21.80;57.80;;;;;;458811;258;1234;-46
2021/10/02 09:51:58;;;;;;;;;;;21.80;57.70;;;;;;458824;258;1361;-46
2021/10/02 09:54:00;;;;;;;;;;;21.80;57.70;;;;;;458850;258;2255;-46
2021/10/02 09:56:01;;;;;;;;;;;21.80;57.80;;;;;;458833;258;1249;-45
2021/10/02 09:58:02;;;;;;;;;;;21.80;57.80;;;;;;458829;258;1212;-46
2021/10/02 10:00:04;;;;;;;;;;;21.80;57.70;;;;;;458563;258;1021;-46
2021/10/02 10:02:05;;;;;;;;;;;21.80;57.70;;;;;;458412;258;1443;-45
2021/10/02 10:04:06;;;;;;;;;;;21.80;57.70;;;;;;458478;258;1108;-46
2021/10/02 10:06:08;;;;;;;;;;;21.80;57.70;;;;;;458767;258;1290;-46
2021/10/02 10:08:09;;;;;;;;;;;21.80;57.70;;;;;;458412;258;1399;-46
2021/10/02 10:10:11;;;;;;;;;;;21.80;57.70;;;;;;458494;259;1065;-46
2021/10/02 10:12:12;;;;;;;;;;;21.80;57.80;;;;;;458669;258;1282;-46
2021/10/02 10:14:13;;;;;;;;;;;21.80;57.80;;;;;;458376;259;2174;-46
2021/10/02 10:16:15;;;;;;;;;;;21.80;57.80;;;;;;458821;255;1287;-46
2021/10/02 10:18:16;;;;;;;;;;;21.80;57.80;;;;;;458890;258;1725;-45
2021/10/02 10:20:17;;;;;;;;;;;21.80;57.80;;;;;;458634;258;1086;-46
2021/10/02 10:22:19;;;;;;;;;;;21.80;57.70;;;;;;458378;259;1316;-45
2021/10/02 10:24:20;;;;;;;;;;;21.80;57.90;;;;;;458700;258;1101;-45
2021/10/02 10:26:23;;;;;;;;;;;21.80;57.80;;;;;;458537;258;1281;-46
2021/10/02 10:28:24;;;;;;;;;;;21.80;57.80;;;;;;458567;254;2121;-46
2021/10/02 10:30:24;;;;;;;;;;;21.80;57.80;;;;;;458476;254;2462;-46
2021/10/02 10:32:26;;;;;;;;;;;21.80;57.80;;;;;;458383;259;1332;-45
2021/10/02 10:34:27;;;;;;;;;;;21.80;57.80;;;;;;458852;258;2202;-46
2021/10/02 10:36:28;;;;;;;;;;;21.80;57.80;;;;;;458715;258;1372;-46
2021/10/02 10:38:30;;;;;;;;;;;21.80;57.80;;;;;;458582;258;1221;-46
2021/10/02 10:40:31;;;;;;;;;;;21.80;57.80;;;;;;458446;255;1201;-46
2021/10/02 10:42:33;;;;;;;;;;;21.80;57.70;;;;;;458347;258;1201;-45
2021/10/02 10:44:34;;;;;;;;;;;21.80;57.70;;;;;;458435;259;1202;-46
2021/10/02 10:46:36;;;;;;;;;;;21.80;57.70;;;;;;458785;258;1409;-46
2021/10/02 10:48:37;;;;;;;;;;;21.80;57.70;;;;;;458467;259;1176;-46
2021/10/02 10:50:38;;;;;;;;;;;21.80;57.70;;;;;;458714;258;1116;-45
2021/10/02 10:52:39;;;;;;;;;;;21.80;57.80;;;;;;458780;258;1125;-46
2021/10/02 10:54:41;;;;;;;;;;;21.80;57.80;;;;;;458745;258;2139;-46
2021/10/02 10:56:42;;;;;;;;;;;21.80;57.80;;;;;;458782;258;1461;-46
2021/10/02 10:58:43;;;;;;;;;;;21.70;57.90;;;;;;458658;258;1305;-46
2021/10/02 11:00:45;;;;;;;;;;;21.70;57.80;;;;;;458835;258;1128;-46
2021/10/02 11:02:46;;;;;;;;;;;21.70;57.90;;;;;;458638;258;1085;-46
2021/10/02 11:04:47;;;;;;;;;;;21.70;57.90;;;;;;458495;259;1054;-46
2021/10/02 11:06:48;;;;;;;;;;;21.80;57.80;;;;;;458594;258;1342;-45
2021/10/02 11:08:50;;;;;;;;;;;21.80;57.80;;;;;;458796;258;1093;-46
2021/10/02 11:10:51;;;;;;;;;;;21.80;57.70;;;;;;458853;258;1250;-45
2021/10/02 11:12:52;;;;;;;;;;;21.80;57.70;;;;;;458599;258;1163;-45
2021/10/02 11:14:59;;;;;;;;;;;21.80;57.70;;;;;;458465;259;2139;-46
2021/10/02 11:16:56;;;;;;;;;;;21.80;57.70;;;;;;458624;254;2258;-46
2021/10/02 11:18:57;;;;;;;;;;;21.80;57.70;;;;;;458896;258;1099;-46
2021/10/02 11:20:58;;;;;;;;;;;21.80;57.70;;;;;;458780;258;1413;-46
2021/10/02 11:23:07;;;;;;;;;;;21.80;57.70;;;;;;458436;259;1173;-46
2021/10/02 11:25:03;;;;;;;;;;;21.80;57.70;;;;;;458450;256;1816;-46
2021/10/02 11:27:04;;;;;;;;;;;21.80;57.70;;;;;;458602;258;1352;-46
2021/10/02 11:29:06;;;;;;;;;;;21.80;57.70;;;;;;458282;259;2002;-46
2021/10/02 11:31:07;;;;;;;;;;;21.80;57.80;;;;;;458419;259;1432;-46
2021/10/02 11:33:08;;;;;;;;;;;21.80;57.80;;;;;;458883;258;1071;-45
2021/10/02 11:35:10;;;;;;;;;;;21.80;57.80;;;;;;458869;258;2217;-46
2021/10/02 11:37:11;;;;;;;;;;;21.80;57.90;;;;;;458514;258;1833;-46
2021/10/02 11:39:12;;;;;;;;;;;21.80;57.90;;;;;;458431;259;1196;-46
2021/10/02 11:41:14;;;;;;;;;;;21.80;57.80;;;;;;458462;258;1245;-45
2021/10/02 11:43:16;;;;;;;;;;;21.80;57.80;;;;;;458460;259;1122;-46
2021/10/02 11:45:16;;;;;;;;;;;21.80;57.80;;;;;;458720;254;2461;-46
2021/10/02 11:47:18;;;;;;;;;;;21.80;57.70;;;;;;458430;259;1288;-46
2021/10/02 11:49:19;;;;;;;;;;;21.80;57.70;;;;;;458501;259;1057;-45
2021/10/02 11:51:20;;;;;;;;;;;21.80;57.70;;;;;;458402;259;1411;-46
2021/10/02 11:53:22;;;;;;;;;;;21.80;57.70;;;;;;458483;258;1297;-46
2021/10/02 11:55:23;;;;;;;;;;;21.80;57.80;;;;;;458772;258;2119;-46
2021/10/02 11:57:24;;;;;;;;;;;21.70;57.90;;;;;;458439;258;1196;-46
2021/10/02 11:59:25;;;;;;;;;;;21.70;57.90;;;;;;458500;259;1082;-46
2021/10/02 12:01:27;;;;;;;;;;;21.70;57.90;;;;;;458461;258;1245;-45
2021/10/02 12:03:28;;;;;;;;;;;21.80;57.90;;;;;;458832;258;1092;-46
2021/10/02 12:05:29;;;;;;;;;;;21.80;57.80;;;;;;458466;259;1079;-46
2021/10/02 12:07:31;;;;;;;;;;;21.80;57.80;;;;;;458543;258;1146;-46
2021/10/02 12:09:32;;;;;;;;;;;21.80;57.90;;;;;;458467;259;1146;-46
2021/10/02 12:11:33;;;;;;;;;;;21.80;57.80;;;;;;458715;258;1338;-46
2021/10/02 12:13:35;;;;;;;;;;;21.80;57.90;;;;;;458480;258;1356;-46
2021/10/02 12:15:36;;;;;;;;;;;21.80;57.80;;;;;;458519;258;2134;-46
2021/10/02 12:17:37;;;;;;;;;;;21.80;57.80;;;;;;458436;259;1268;-46
2021/10/02 12:19:39;;;;;;;;;;;21.80;57.70;;;;;;458656;258;1119;-46
2021/10/02 12:21:40;;;;;;;;;;;21.80;57.70;;;;;;458435;259;1350;-45
2021/10/02 12:23:41;;;;;;;;;;;21.80;57.70;;;;;;458714;258;1343;-46
2021/10/02 12:25:43;;;;;;;;;;;21.80;57.80;;;;;;458807;258;1399;-46
2021/10/02 12:27:44;;;;;;;;;;;21.80;57.80;;;;;;458550;258;1263;-46
2021/10/02 12:29:46;;;;;;;;;;;21.80;57.80;;;;;;458462;259;1080;-45
2021/10/02 12:31:47;;;;;;;;;;;21.80;57.80;;;;;;458385;254;1705;-46
2021/10/02 12:33:48;;;;;;;;;;;21.80;57.80;;;;;;458584;258;1100;-46
2021/10/02 12:35:49;;;;;;;;;;;21.80;57.70;;;;;;458394;259;2201;-46
2021/10/02 12:37:51;;;;;;;;;;;21.80;57.80;;;;;;458513;258;1344;-46
2021/10/02 12:39:52;;;;;;;;;;;21.80;57.80;;;;;;458380;259;1077;-45
2021/10/02 12:41:54;;;;;;;;;;;21.80;57.80;;;;;;458491;258;1209;-45